Time;durP1;ratioP1;P1;durP2;ratioP2;P2;SDS_P1;SDS_P2;PMS_P1;PMS_P2;Temp;Humidity;BMP_temperature;BMP_pressure;BME280_temperature;BME280_humidity;BME280_pressure;Samples;Min_cycle;Max_cycle;Signal;HPM_P1;HPM_P2
2023/08/15 00:01:07;;;;;;;8.30;7.60;;;;;;;19.14;nan;96926.91;5015207;28;20217;-64
2023/08/15 00:03:36;;;;;;;9.97;7.70;;;;;;;19.12;nan;96918.31;4899987;28;20251;-61
2023/08/15 00:06:04;;;;;;;8.83;8.23;;;;;;;19.01;nan;96905.78;4958631;28;20616;-64
2023/08/15 00:08:32;;;;;;;8.10;7.43;;;;;;;19.11;nan;96921.22;5017538;28;20208;-62
2023/08/15 00:11:00;;;;;;;9.03;8.33;;;;;;;19.03;nan;96917.91;5016355;28;20208;-61
2023/08/15 00:13:29;;;;;;;9.10;8.40;;;;;;;19.01;nan;96914.63;5013745;28;20213;-62
2023/08/15 00:15:56;;;;;;;7.60;7.10;;;;;;;18.95;nan;96905.69;5013081;28;20239;-63
2023/08/15 00:18:24;;;;;;;8.80;8.03;;;;;;;19.02;nan;96916.25;5015450;28;20204;-64
2023/08/15 00:20:52;;;;;;;8.27;7.70;;;;;;;18.98;nan;96914.34;5011100;28;20569;-64
2023/08/15 00:23:20;;;;;;;8.60;8.00;;;;;;;18.97;nan;96926.91;5013348;28;20833;-64
2023/08/15 00:25:47;;;;;;;8.10;7.40;;;;;;;18.93;nan;96923.09;5015748;28;20259;-65
2023/08/15 00:28:15;;;;;;;8.70;8.00;;;;;;;18.92;nan;96924.13;5015024;28;20686;-63
2023/08/15 00:30:44;;;;;;;8.50;7.50;;;;;;;18.89;nan;96919.25;5001344;28;20200;-65
2023/08/15 00:33:12;;;;;;;8.00;7.40;;;;;;;18.84;nan;96909.25;4994225;28;20253;-64
2023/08/15 00:35:42;;;;;;;9.00;8.10;;;;;;;18.91;nan;96934.03;4975054;28;20223;-65
2023/08/15 00:38:10;;;;;;;8.00;7.40;;;;;;;18.86;nan;96933.97;4943740;28;20220;-62
2023/08/15 00:40:38;;;;;;;8.43;7.83;;;;;;;18.83;nan;96922.94;5015594;28;20210;-63
2023/08/15 00:43:06;;;;;;;8.63;7.93;;;;;;;18.85;nan;96923.50;5012637;28;20212;-63
2023/08/15 00:45:36;;;;;;;8.50;7.90;;;;;;;18.84;nan;96916.50;5017254;28;20742;-63
2023/08/15 00:48:06;;;;;;;8.57;8.00;;;;;;;18.82;nan;96921.28;5014322;28;20212;-61
2023/08/15 00:50:34;;;;;;;8.77;7.97;;;;;;;18.75;nan;96924.97;5017786;28;20212;-66
2023/08/15 00:53:03;;;;;;;9.17;8.30;;;;;;;18.71;nan;96926.47;5013478;28;20212;-62
2023/08/15 00:55:31;;;;;;;8.30;7.73;;;;;;;18.71;nan;96925.69;5014932;28;20755;-62
2023/08/15 00:57:59;;;;;;;9.73;8.87;;;;;;;18.74;nan;96928.66;5013016;28;20212;-63
2023/08/15 01:00:27;;;;;;;9.47;8.77;;;;;;;18.67;nan;96933.38;5015629;28;20207;-62
2023/08/15 01:02:54;;;;;;;9.23;8.53;;;;;;;18.69;nan;96938.53;4971378;28;20217;-63
2023/08/15 01:05:25;;;;;;;9.37;8.53;;;;;;;18.64;nan;96939.25;5016064;28;20232;-63
2023/08/15 01:07:53;;;;;;;8.83;8.10;;;;;;;18.59;nan;96939.16;4898873;28;20204;-61
2023/08/15 01:10:21;;;;;;;9.43;8.73;;;;;;;18.52;nan;96944.66;5017382;28;20231;-61
2023/08/15 01:12:56;;;;;;;8.70;8.10;;;;;;;18.49;nan;96942.47;5013915;28;20209;-62
2023/08/15 01:15:25;;;;;;;8.80;8.07;;;;;;;18.48;nan;96944.34;5016268;28;20214;-63
2023/08/15 01:17:57;;;;;;;8.83;8.13;;;;;;;18.46;nan;96935.72;5014898;28;20865;-64
2023/08/15 01:20:29;;;;;;;8.23;7.77;;;;;;;18.41;nan;96938.31;5015152;28;20265;-64
2023/08/15 01:23:01;;;;;;;8.73;8.13;;;;;;;18.41;nan;96942.84;5012430;28;20216;-64
2023/08/15 01:25:32;;;;;;;8.80;8.03;;;;;;;18.45;nan;96944.84;5017213;28;20247;-64
2023/08/15 01:27:59;;;;;;;8.63;7.97;;;;;;;18.41;nan;96938.31;5012712;28;20212;-63
2023/08/15 01:30:27;;;;;;;8.33;7.63;;;;;;;18.38;nan;96938.81;5014815;28;21432;-62
2023/08/15 01:33:00;;;;;;;8.23;7.73;;;;;;;18.37;nan;96937.16;5013683;28;20226;-64
2023/08/15 01:35:33;;;;;;;8.83;8.23;;;;;;;18.27;nan;96916.34;5015551;28;20542;-64
2023/08/15 01:38:04;;;;;;;9.07;8.27;;;;;;;18.42;nan;96928.41;4976895;28;20212;-61
2023/08/15 01:40:35;;;;;;;9.07;8.37;;;;;;;18.37;nan;96931.78;4994542;28;20219;-64
2023/08/15 01:43:04;;;;;;;8.40;7.90;;;;;;;18.39;nan;96929.69;4925829;28;20271;-62
2023/08/15 01:45:32;;;;;;;8.87;7.80;;;;;;;18.35;nan;96923.16;5015075;28;20236;-61
2023/08/15 01:47:59;;;;;;;9.60;8.30;;;;;;;18.32;nan;96924.47;5013382;28;20212;-61
2023/08/15 01:50:28;;;;;;;9.20;8.47;;;;;;;18.31;nan;96924.72;5016111;28;20209;-60
2023/08/15 01:52:55;;;;;;;8.90;8.30;;;;;;;18.28;nan;96925.19;5012201;28;20211;-63
2023/08/15 01:55:23;;;;;;;8.30;7.60;;;;;;;18.22;nan;96925.09;5013884;28;20601;-62
2023/08/15 01:57:52;;;;;;;9.90;9.10;;;;;;;18.22;nan;96927.78;5011398;28;20216;-62
2023/08/15 02:00:20;;;;;;;8.27;7.77;;;;;;;18.20;nan;96923.72;5017824;28;20219;-61
2023/08/15 02:02:47;;;;;;;9.17;8.47;;;;;;;18.18;nan;96929.31;5013057;28;20208;-64
2023/08/15 02:05:16;;;;;;;9.33;8.63;;;;;;;18.14;nan;96925.47;5018418;28;20703;-64
2023/08/15 02:07:43;;;;;;;8.67;8.13;;;;;;;18.11;nan;96931.31;4968710;28;20676;-62
2023/08/15 02:10:11;;;;;;;8.07;7.37;;;;;;;18.08;nan;96929.13;5017057;28;20220;-63
2023/08/15 02:12:39;;;;;;;7.73;7.20;;;;;;;17.99;nan;96915.25;4895039;28;20630;-61
2023/08/15 02:15:09;;;;;;;7.83;7.33;;;;;;;18.07;nan;96932.88;5019857;28;20261;-61
2023/08/15 02:17:37;;;;;;;8.60;8.00;;;;;;;18.01;nan;96926.56;5013062;28;20269;-64
2023/08/15 02:20:06;;;;;;;8.60;8.00;;;;;;;17.99;nan;96931.31;5021060;28;20674;-61
2023/08/15 02:22:34;;;;;;;9.30;8.70;;;;;;;17.89;nan;96909.69;5009866;28;21876;-62
2023/08/15 02:25:02;;;;;;;8.13;7.43;;;;;;;17.97;nan;96924.56;5018660;28;20262;-63
2023/08/15 02:27:30;;;;;;;8.80;8.10;;;;;;;17.94;nan;96924.00;5013732;28;20829;-63
2023/08/15 02:29:57;;;;;;;8.13;7.53;;;;;;;17.89;nan;96915.84;5020408;28;20221;-64
2023/08/15 02:32:27;;;;;;;8.73;7.93;;;;;;;17.75;nan;96899.22;5012131;28;20211;-63
2023/08/15 02:34:55;;;;;;;8.63;8.00;;;;;;;17.85;nan;96916.59;5021885;28;20235;-64
2023/08/15 02:37:22;;;;;;;8.63;8.03;;;;;;;17.79;nan;96923.69;4976701;28;20319;-66
2023/08/15 02:39:50;;;;;;;8.00;7.47;;;;;;;17.81;nan;96924.28;5024453;28;20816;-62
2023/08/15 02:42:18;;;;;;;8.40;7.80;;;;;;;17.81;nan;96912.75;5015275;28;20219;-64
2023/08/15 02:44:46;;;;;;;8.00;7.47;;;;;;;17.80;nan;96917.28;5016024;28;20224;-62
2023/08/15 02:47:14;;;;;;;8.70;8.10;;;;;;;17.72;nan;96918.47;4890572;28;20243;-64
2023/08/15 02:49:43;;;;;;;8.23;7.60;;;;;;;17.68;nan;96911.94;5017052;28;20768;-64
2023/08/15 02:52:11;;;;;;;9.17;8.47;;;;;;;17.71;nan;96916.84;5015109;28;20223;-63
2023/08/15 02:54:39;;;;;;;8.67;8.03;;;;;;;17.74;nan;96915.56;5015873;28;20236;-63
2023/08/15 02:57:07;;;;;;;9.03;8.33;;;;;;;17.72;nan;96907.75;5017027;28;20212;-64
2023/08/15 02:59:35;;;;;;;8.90;8.07;;;;;;;17.66;nan;96911.38;5019526;28;20204;-63
2023/08/15 03:02:02;;;;;;;9.63;8.73;;;;;;;17.63;nan;96904.63;5015538;28;20208;-65
2023/08/15 03:04:30;;;;;;;9.90;8.57;;;;;;;17.61;nan;96901.34;5015085;28;20282;-64
2023/08/15 03:06:59;;;;;;;9.03;8.20;;;;;;;17.62;nan;96905.69;4972636;28;20239;-64
2023/08/15 03:09:27;;;;;;;9.43;8.67;;;;;;;17.58;nan;96909.88;5016679;28;20220;-63
2023/08/15 03:11:55;;;;;;;9.37;8.77;;;;;;;17.58;nan;96903.72;5015172;28;20200;-63
2023/08/15 03:14:23;;;;;;;9.83;8.97;;;;;;;17.53;nan;96900.94;5016612;28;20232;-64
2023/08/15 03:16:51;;;;;;;10.57;9.67;;;;;;;17.55;nan;96915.69;4891328;28;20604;-63
2023/08/15 03:19:18;;;;;;;10.53;9.70;;;;;;;17.53;nan;96914.31;5019858;28;20220;-65
2023/08/15 03:21:46;;;;;;;10.27;9.47;;;;;;;17.52;nan;96918.03;5015300;28;20208;-62
2023/08/15 03:24:16;;;;;;;10.23;9.33;;;;;;;17.47;nan;96929.44;5017414;28;20208;-64
2023/08/15 03:26:44;;;;;;;10.73;9.83;;;;;;;17.49;nan;96927.34;4955034;28;20243;-64
2023/08/15 03:29:12;;;;;;;9.07;8.37;;;;;;;17.49;nan;96930.84;5017328;28;20201;-62
2023/08/15 03:31:39;;;;;;;9.83;9.03;;;;;;;17.47;nan;96934.81;5014458;28;20211;-62
2023/08/15 03:34:07;;;;;;;9.60;8.80;;;;;;;17.41;nan;96935.75;5017746;28;20226;-64
2023/08/15 03:36:35;;;;;;;9.63;8.93;;;;;;;17.34;nan;96925.97;5014429;28;20223;-62
2023/08/15 03:39:02;;;;;;;10.67;9.97;;;;;;;17.31;nan;96926.44;5019644;28;20219;-64
2023/08/15 03:41:31;;;;;;;9.53;8.73;;;;;;;17.33;nan;96931.56;4973087;28;20212;-64
2023/08/15 03:43:59;;;;;;;10.30;9.60;;;;;;;17.29;nan;96928.53;5016827;28;20227;-62
2023/08/15 03:46:27;;;;;;;9.53;8.83;;;;;;;17.33;nan;96931.56;5016190;28;20614;-63
2023/08/15 03:48:55;;;;;;;9.37;8.63;;;;;;;17.30;nan;96927.50;5014217;28;20217;-63
2023/08/15 03:51:22;;;;;;;9.93;9.03;;;;;;;17.25;nan;96930.06;4883055;28;20216;-62
2023/08/15 03:54:10;;;;;;;9.50;8.80;;;;;;;17.20;nan;96929.91;5019512;28;20234;-63
2023/08/15 03:56:39;;;;;;;9.40;8.70;;;;;;;17.08;nan;96932.63;5013175;28;20197;-63
2023/08/15 03:59:07;;;;;;;9.83;8.97;;;;;;;16.99;nan;96931.31;5019584;28;20808;-63
2023/08/15 04:01:34;;;;;;;8.80;8.10;;;;;;;17.00;nan;96928.41;5013792;28;20211;-63
2023/08/15 04:04:03;;;;;;;9.13;8.37;;;;;;;16.96;nan;96929.06;5018011;28;20243;-63
2023/08/15 04:06:30;;;;;;;8.50;7.83;;;;;;;16.91;nan;96929.78;5013815;28;20212;-63
2023/08/15 04:08:58;;;;;;;8.87;8.27;;;;;;;16.91;nan;96927.91;5017494;28;20248;-63
2023/08/15 04:11:26;;;;;;;9.63;8.93;;;;;;;16.91;nan;96925.22;4975409;28;20224;-62
2023/08/15 04:13:55;;;;;;;9.33;8.63;;;;;;;16.92;nan;96926.84;5018234;28;20208;-63
2023/08/15 04:16:23;;;;;;;9.27;8.33;;;;;;;16.93;nan;96935.72;5014434;28;20220;-63
2023/08/15 04:18:50;;;;;;;9.77;8.97;;;;;;;16.98;nan;96935.88;5017995;28;20216;-63
2023/08/15 04:21:18;;;;;;;9.77;9.17;;;;;;;16.98;nan;96938.53;4894054;28;20212;-61
2023/08/15 04:23:46;;;;;;;10.27;9.47;;;;;;;16.96;nan;96940.59;5013617;28;20203;-63
2023/08/15 04:26:14;;;;;;;10.03;9.13;;;;;;;16.96;nan;96951.31;5014784;28;20215;-63
2023/08/15 04:28:41;;;;;;;9.70;8.90;;;;;;;17.02;nan;96952.25;5012154;28;20236;-63
2023/08/15 04:31:10;;;;;;;10.13;9.43;;;;;;;17.00;nan;96947.16;5014754;28;20219;-62
2023/08/15 04:33:38;;;;;;;9.53;8.93;;;;;;;17.03;nan;96941.34;5015162;28;20934;-63
2023/08/15 04:36:06;;;;;;;10.27;9.47;;;;;;;17.05;nan;96949.16;5015189;28;20911;-64
2023/08/15 04:38:34;;;;;;;9.63;8.93;;;;;;;17.10;nan;96949.25;5015931;28;20223;-64
2023/08/15 04:41:01;;;;;;;8.90;8.30;;;;;;;17.09;nan;96950.31;4972043;28;20216;-64
2023/08/15 04:43:29;;;;;;;8.97;8.30;;;;;;;17.09;nan;96944.97;5018352;28;20872;-63
2023/08/15 04:45:57;;;;;;;9.67;8.80;;;;;;;17.19;nan;96949.72;5013279;28;20224;-63
2023/08/15 04:48:26;;;;;;;9.80;9.10;;;;;;;17.23;nan;96934.81;5015722;28;20292;-65
2023/08/15 04:50:54;;;;;;;10.40;9.60;;;;;;;17.19;nan;96928.28;4897136;28;26117;-64
2023/08/15 04:53:22;;;;;;;8.93;8.33;;;;;;;17.38;nan;96947.72;5014778;28;20818;-62
2023/08/15 04:55:49;;;;;;;9.70;8.93;;;;;;;17.45;nan;96959.16;5012946;28;20803;-63
2023/08/15 04:58:17;;;;;;;8.83;8.23;;;;;;;17.56;nan;96954.03;5016026;28;20677;-64
2023/08/15 05:00:45;;;;;;;10.00;9.30;;;;;;;17.65;nan;96957.97;5015070;28;20200;-63
2023/08/15 05:03:12;;;;;;;11.27;10.40;;;;;;;17.80;nan;96954.78;5016474;28;20219;-62
2023/08/15 05:05:41;;;;;;;10.27;9.47;;;;;;;17.92;nan;96955.56;5015426;28;20227;-64
2023/08/15 05:08:09;;;;;;;10.37;9.60;;;;;;;18.05;nan;96953.72;5016368;28;20239;-63
2023/08/15 05:10:37;;;;;;;10.73;10.03;;;;;;;18.20;nan;96959.38;5017226;28;20299;-64
2023/08/15 05:13:04;;;;;;;11.00;10.20;;;;;;;18.30;nan;96960.63;5015071;28;20591;-63
2023/08/15 05:15:32;;;;;;;10.50;9.80;;;;;;;18.44;nan;96961.97;4997400;28;20232;-64
2023/08/15 05:18:01;;;;;;;10.93;10.10;;;;;;;18.61;nan;96961.19;4997125;28;20323;-63
2023/08/15 05:20:29;;;;;;;11.30;10.37;;;;;;;18.77;nan;96955.06;5019302;28;20289;-63
2023/08/15 05:22:58;;;;;;;10.73;9.60;;;;;;;18.91;nan;96960.88;5017108;28;20997;-63
2023/08/15 05:25:26;;;;;;;10.70;9.80;;;;;;;19.04;nan;96956.31;4968480;28;20228;-65
2023/08/15 05:28:03;;;;;;;12.03;11.13;;;;;;;19.11;nan;96956.94;4962851;28;20236;-63
2023/08/15 05:30:31;;;;;;;12.07;11.10;;;;;;;19.27;nan;96965.22;5015008;28;20209;-64
2023/08/15 05:32:59;;;;;;;10.87;10.13;;;;;;;19.32;nan;96963.44;5013903;28;20301;-63
2023/08/15 05:35:27;;;;;;;13.37;10.03;;;;;;;19.48;nan;96960.97;5015213;28;20270;-63
2023/08/15 05:37:55;;;;;;;10.70;9.80;;;;;;;19.62;nan;96956.06;5011598;28;20682;-63
2023/08/15 05:40:25;;;;;;;10.50;9.70;;;;;;;19.70;nan;96952.16;5017761;28;20208;-63
2023/08/15 05:42:53;;;;;;;9.50;8.90;;;;;;;19.77;nan;96955.47;5013278;28;20212;-64
2023/08/15 05:45:21;;;;;;;10.13;9.23;;;;;;;19.83;nan;96948.28;5016619;28;20220;-65
2023/08/15 05:47:49;;;;;;;11.57;10.73;;;;;;;19.64;nan;96940.50;4962159;28;21275;-65
2023/08/15 05:50:16;;;;;;;11.47;10.47;;;;;;;19.87;nan;96958.28;5021069;28;20200;-63
2023/08/15 05:52:44;;;;;;;12.90;11.80;;;;;;;19.87;nan;96949.41;5013462;28;20303;-63
2023/08/15 05:55:12;;;;;;;12.13;10.03;;;;;;;20.06;nan;96958.81;5019849;28;20231;-63
2023/08/15 05:57:50;;;;;;;10.40;9.60;;;;;;;20.22;nan;96962.47;4938184;28;21410;-64
2023/08/15 06:00:18;;;;;;;10.83;10.03;;;;;;;20.38;nan;96958.09;5016031;28;20784;-64
2023/08/15 06:02:46;;;;;;;11.03;10.10;;;;;;;20.57;nan;96956.91;5016103;28;20215;-63
2023/08/15 06:05:14;;;;;;;11.40;10.50;;;;;;;20.61;nan;96953.47;5022582;28;20232;-63
2023/08/15 06:07:41;;;;;;;10.13;9.43;;;;;;;20.78;nan;96953.38;5013703;28;20200;-65
2023/08/15 06:10:09;;;;;;;11.30;10.50;;;;;;;20.91;nan;96948.66;5021746;28;20265;-63
2023/08/15 06:12:37;;;;;;;11.63;10.63;;;;;;;21.10;nan;96954.44;5018405;28;20732;-63
2023/08/15 06:15:07;;;;;;;11.63;10.83;;;;;;;21.16;nan;96950.72;5016457;28;20224;-63
2023/08/15 06:17:35;;;;;;;10.97;10.17;;;;;;;21.18;nan;96956.66;5018653;28;20230;-64
2023/08/15 06:20:03;;;;;;;10.13;9.40;;;;;;;21.35;nan;96950.34;5017181;28;20592;-63
2023/08/15 06:22:31;;;;;;;11.33;10.43;;;;;;;21.44;nan;96956.06;4996909;28;20220;-65
2023/08/15 06:24:59;;;;;;;11.53;10.53;;;;;;;21.51;nan;96954.72;4999375;28;20731;-63
2023/08/15 06:27:27;;;;;;;10.47;9.67;;;;;;;21.50;nan;96960.41;5019727;28;20208;-64
2023/08/15 06:29:54;;;;;;;9.57;8.87;;;;;;;21.71;nan;96950.56;5019065;28;20247;-62
2023/08/15 06:32:27;;;;;;;10.23;9.37;;;;;;;21.96;nan;96955.25;4891411;28;20231;-62
2023/08/15 06:34:55;;;;;;;10.47;9.67;;;;;;;22.22;nan;96954.53;5018961;28;20489;-62
2023/08/15 06:37:22;;;;;;;9.90;9.13;;;;;;;22.32;nan;96946.47;5012811;28;20210;-62
2023/08/15 06:39:50;;;;;;;9.57;8.90;;;;;;;22.51;nan;96957.59;5020609;28;20200;-62
2023/08/15 06:42:18;;;;;;;10.17;9.47;;;;;;;22.61;nan;96950.63;5016222;28;20204;-62
2023/08/15 06:44:46;;;;;;;9.47;8.87;;;;;;;22.64;nan;96955.50;5020359;28;20231;-63
2023/08/15 06:47:13;;;;;;;10.00;9.30;;;;;;;22.75;nan;96935.50;5014234;28;20278;-62
2023/08/15 06:49:43;;;;;;;9.67;8.67;;;;;;;23.03;nan;96946.88;5019570;28;20216;-64
2023/08/15 06:52:10;;;;;;;9.80;8.80;;;;;;;23.35;nan;96939.56;5011805;28;20212;-63
2023/08/15 06:54:38;;;;;;;13.43;9.47;;;;;;;23.21;nan;96942.81;5022288;28;20247;-63
2023/08/15 06:57:07;;;;;;;9.87;9.17;;;;;;;22.97;nan;96947.97;4975569;28;20217;-63
2023/08/15 06:59:35;;;;;;;9.10;8.40;;;;;;;23.31;nan;96946.59;5017840;28;20725;-62
2023/08/15 07:02:05;;;;;;;9.17;8.47;;;;;;;23.54;nan;96948.72;5013510;28;20215;-62
2023/08/15 07:04:36;;;;;;;9.57;8.60;;;;;;;23.87;nan;96942.16;5020054;28;20261;-62
2023/08/15 07:07:06;;;;;;;9.23;8.33;;;;;;;24.03;nan;96937.50;4910185;28;20216;-64
2023/08/15 07:09:35;;;;;;;9.10;8.40;;;;;;;24.13;nan;96943.69;5018135;28;20224;-63
2023/08/15 07:12:04;;;;;;;8.33;7.70;;;;;;;24.35;nan;96937.06;5017389;28;20314;-63
2023/08/15 07:14:32;;;;;;;8.97;8.27;;;;;;;24.56;nan;96931.53;5018565;28;20223;-63
2023/08/15 07:17:01;;;;;;;8.87;8.27;;;;;;;24.72;nan;96934.94;5013531;28;20722;-63
2023/08/15 07:19:28;;;;;;;8.23;7.67;;;;;;;24.83;nan;96941.94;5022829;28;20203;-63
2023/08/15 07:21:56;;;;;;;8.17;7.57;;;;;;;25.01;nan;96953.16;5013008;28;20207;-64
2023/08/15 07:24:25;;;;;;;8.43;7.77;;;;;;;24.97;nan;96955.63;5015326;28;20217;-63
2023/08/15 07:26:53;;;;;;;7.80;7.20;;;;;;;24.95;nan;96954.31;4970674;28;20209;-62
2023/08/15 07:29:21;;;;;;;8.27;7.77;;;;;;;25.00;nan;96954.25;5018100;28;20316;-63
2023/08/15 07:31:49;;;;;;;7.33;6.83;;;;;;;24.94;nan;96953.47;5014027;28;20208;-63
2023/08/15 07:34:16;;;;;;;7.30;6.73;;;;;;;25.16;nan;96957.66;5019483;28;20607;-63
2023/08/15 07:36:44;;;;;;;8.10;7.40;;;;;;;25.20;nan;96966.03;5017691;28;20203;-63
2023/08/15 07:39:12;;;;;;;6.97;6.47;;;;;;;25.29;nan;96962.41;5018929;28;20326;-63
2023/08/15 07:41:41;;;;;;;8.07;7.33;;;;;;;25.26;nan;96971.09;4887822;28;20213;-62
2023/08/15 07:44:09;;;;;;;8.13;7.60;;;;;;;25.38;nan;96968.03;5016921;28;20262;-62
2023/08/15 07:46:37;;;;;;;8.07;7.57;;;;;;;25.30;nan;96965.94;5014682;28;20520;-63
2023/08/15 07:49:05;;;;;;;8.83;7.33;;;;;;;25.23;nan;96970.88;5016162;28;20228;-62
2023/08/15 07:51:32;;;;;;;7.03;6.53;;;;;;;25.29;nan;96969.75;5013194;28;20710;-62
2023/08/15 07:54:00;;;;;;;7.60;7.03;;;;;;;25.49;nan;96968.78;5015271;28;20212;-63
2023/08/15 07:56:30;;;;;;;7.17;6.50;;;;;;;25.43;nan;96980.75;4971793;28;20208;-62
2023/08/15 07:58:58;;;;;;;7.60;6.90;;;;;;;25.71;nan;96978.31;5018061;28;20713;-62
2023/08/15 08:01:26;;;;;;;6.90;6.43;;;;;;;25.69;nan;96986.75;5013886;28;20208;-62
2023/08/15 08:03:55;;;;;;;9.00;7.07;;;;;;;25.74;nan;96974.22;5019214;28;20269;-63
2023/08/15 08:06:23;;;;;;;8.03;7.50;;;;;;;25.83;nan;96983.34;5020303;28;20222;-64
2023/08/15 08:09:07;;;;;;;8.10;6.93;;;;;;;25.90;nan;96989.22;5019447;28;20207;-65
2023/08/15 08:11:36;;;;;;;9.17;7.20;;;;;;;25.99;nan;96984.78;5014098;28;20213;-64
2023/08/15 08:14:05;;;;;;;8.30;7.40;;;;;;;25.93;nan;96987.84;5015652;28;20304;-63
2023/08/15 08:16:33;;;;;;;8.37;7.63;;;;;;;25.97;nan;96997.84;4893424;28;20223;-63
2023/08/15 08:19:00;;;;;;;6.83;6.17;;;;;;;26.15;nan;97000.88;5016349;28;20235;-63
2023/08/15 08:21:28;;;;;;;7.80;7.17;;;;;;;26.18;nan;96988.69;5011388;28;20695;-63
2023/08/15 08:23:56;;;;;;;8.20;7.50;;;;;;;26.14;nan;96989.22;5014332;28;20298;-64
2023/08/15 08:26:24;;;;;;;7.60;7.00;;;;;;;26.20;nan;96984.56;4973224;28;20205;-62
2023/08/15 08:28:52;;;;;;;8.00;7.20;;;;;;;26.29;nan;96984.72;5018431;28;20217;-63
2023/08/15 08:31:21;;;;;;;6.93;6.53;;;;;;;26.51;nan;96981.44;5012406;28;20247;-61
2023/08/15 08:33:48;;;;;;;9.03;8.13;;;;;;;26.55;nan;96982.47;5017688;28;20203;-62
2023/08/15 08:36:16;;;;;;;8.57;7.30;;;;;;;26.56;nan;96978.66;5015251;28;20238;-64
2023/08/15 08:38:44;;;;;;;6.93;6.53;;;;;;;26.63;nan;96980.19;5014523;28;20207;-64
2023/08/15 08:41:11;;;;;;;7.30;6.70;;;;;;;26.57;nan;96987.63;5013787;28;20201;-63
2023/08/15 08:43:40;;;;;;;7.27;6.60;;;;;;;26.63;nan;96983.72;5015593;28;20212;-63
2023/08/15 08:46:09;;;;;;;7.60;7.00;;;;;;;26.54;nan;96980.84;4881340;28;21437;-64
2023/08/15 08:48:38;;;;;;;7.07;6.67;;;;;;;26.49;nan;96983.66;5017824;28;20203;-64
2023/08/15 08:51:06;;;;;;;6.90;6.40;;;;;;;26.53;nan;96979.25;5016496;28;20410;-63
2023/08/15 08:53:34;;;;;;;7.87;7.27;;;;;;;26.76;nan;96979.47;5015738;28;20216;-64
2023/08/15 08:56:02;;;;;;;7.70;7.00;;;;;;;26.95;nan;96984.91;5013855;28;20228;-63
2023/08/15 08:58:30;;;;;;;7.60;7.00;;;;;;;26.95;nan;96986.81;5019868;28;20212;-63
2023/08/15 09:00:59;;;;;;;7.83;7.03;;;;;;;27.10;nan;96992.03;4971604;28;20320;-62
2023/08/15 09:03:27;;;;;;;7.13;6.73;;;;;;;27.20;nan;96987.53;5018251;28;20811;-63
2023/08/15 09:05:57;;;;;;;6.83;6.40;;;;;;;27.35;nan;96989.97;5014228;28;20224;-63
2023/08/15 09:08:25;;;;;;;7.43;6.83;;;;;;;27.44;nan;96985.44;5019300;28;20208;-63
2023/08/15 09:10:53;;;;;;;7.70;7.00;;;;;;;27.43;nan;96992.00;5015663;28;20357;-63
2023/08/15 09:13:22;;;;;;;8.00;7.40;;;;;;;27.58;nan;96984.72;5016964;28;20218;-63
2023/08/15 09:15:50;;;;;;;7.67;7.07;;;;;;;27.52;nan;96991.38;5014927;28;20898;-63
2023/08/15 09:18:21;;;;;;;7.30;6.70;;;;;;;27.37;nan;96981.53;5019466;28;22208;-63
2023/08/15 09:20:52;;;;;;;8.20;6.97;;;;;;;27.62;nan;96991.16;4908170;28;20733;-63
2023/08/15 09:23:21;;;;;;;7.60;7.10;;;;;;;27.87;nan;96984.44;5019943;28;20722;-63
2023/08/15 09:25:53;;;;;;;7.30;6.80;;;;;;;27.93;nan;96981.59;5016814;28;20817;-64
2023/08/15 09:28:21;;;;;;;7.50;6.90;;;;;;;27.74;nan;96975.16;5021787;28;20786;-63
2023/08/15 09:30:52;;;;;;;7.10;6.47;;;;;;;27.84;nan;96979.59;4975085;28;20824;-63
2023/08/15 09:33:20;;;;;;;7.47;6.73;;;;;;;27.90;nan;96983.03;5017318;28;20214;-63
2023/08/15 09:35:48;;;;;;;8.03;7.00;;;;;;;27.92;nan;96986.25;5017393;28;20230;-63
2023/08/15 09:38:26;;;;;;;8.03;7.37;;;;;;;27.88;nan;96983.31;5019592;28;21050;-62
2023/08/15 09:40:56;;;;;;;6.83;6.23;;;;;;;28.16;nan;96977.91;5019686;28;20711;-63
2023/08/15 09:43:24;;;;;;;7.53;7.03;;;;;;;28.15;nan;96970.84;5018734;28;20669;-62
2023/08/15 09:45:52;;;;;;;11.37;8.40;;;;;;;28.36;nan;96970.41;5018059;28;20331;-63
2023/08/15 09:48:20;;;;;;;8.30;7.77;;;;;;;28.41;nan;96955.88;5018207;28;20847;-63
2023/08/15 09:50:48;;;;;;;7.60;7.00;;;;;;;28.44;nan;96971.59;5017388;28;20228;-63
2023/08/15 09:53:17;;;;;;;7.07;6.57;;;;;;;28.22;nan;96970.41;5014937;28;20686;-63
2023/08/15 09:55:52;;;;;;;6.87;6.43;;;;;;;28.35;nan;96959.81;4911894;28;20306;-63
2023/08/15 09:58:20;;;;;;;6.40;6.00;;;;;;;28.41;nan;96967.59;5017265;28;20222;-62
2023/08/15 10:00:50;;;;;;;7.17;6.57;;;;;;;28.49;nan;96963.31;5016360;28;20215;-63
2023/08/15 10:03:20;;;;;;;7.90;7.30;;;;;;;28.42;nan;96950.13;5018748;28;20216;-62
2023/08/15 10:05:54;;;;;;;7.20;6.70;;;;;;;28.59;nan;96954.91;4973254;28;22453;-62
2023/08/15 10:08:23;;;;;;;6.70;6.30;;;;;;;28.60;nan;96953.00;5017749;28;20307;-63
2023/08/15 10:10:53;;;;;;;6.80;6.40;;;;;;;28.65;nan;96947.44;5018884;28;20224;-65
2023/08/15 10:13:23;;;;;;;7.80;7.17;;;;;;;28.51;nan;96950.19;5018615;28;20205;-63
2023/08/15 10:15:51;;;;;;;7.70;7.20;;;;;;;28.83;nan;96951.13;5017236;28;20233;-63
2023/08/15 10:18:19;;;;;;;9.07;6.80;;;;;;;28.91;nan;96952.31;5017808;28;20215;-62
2023/08/15 10:20:51;;;;;;;7.80;7.30;;;;;;;28.98;nan;96949.13;5018709;28;20747;-63
2023/08/15 10:23:24;;;;;;;7.13;6.63;;;;;;;28.86;nan;96947.78;5017455;28;20633;-63
2023/08/15 10:25:54;;;;;;;8.13;7.37;;;;;;;28.97;nan;96942.06;5015722;28;20263;-64
2023/08/15 10:28:21;;;;;;;7.23;6.37;;;;;;;29.28;nan;96944.03;5017363;28;20207;-63
2023/08/15 10:30:50;;;;;;;7.30;6.80;;;;;;;29.31;nan;96951.59;4897752;28;21384;-64
2023/08/15 10:33:21;;;;;;;6.90;6.50;;;;;;;29.42;nan;96955.72;5018927;28;20253;-63
2023/08/15 10:35:51;;;;;;;7.77;7.13;;;;;;;29.51;nan;96947.53;5018602;28;20258;-63
2023/08/15 10:38:21;;;;;;;6.60;6.10;;;;;;;29.53;nan;96948.03;5020703;28;20269;-63
2023/08/15 10:40:51;;;;;;;7.43;6.83;;;;;;;29.65;nan;96944.72;4971054;28;21005;-63
2023/08/15 10:43:24;;;;;;;6.70;6.30;;;;;;;29.89;nan;96943.53;5017480;28;20212;-63
2023/08/15 10:45:53;;;;;;;6.33;5.90;;;;;;;29.71;nan;96942.66;5013844;28;20249;-63
2023/08/15 10:48:47;;;;;;;6.40;5.90;;;;;;;29.75;nan;96944.47;5017014;28;20208;-62
2023/08/15 10:51:30;;;;;;;6.30;5.57;;;;;;;29.80;nan;96942.69;5017802;28;20764;-63
2023/08/15 10:53:59;;;;;;;6.73;6.23;;;;;;;29.74;nan;96942.84;5026037;28;20212;-65
2023/08/15 10:56:29;;;;;;;6.23;5.70;;;;;;;29.86;nan;96934.03;5020950;28;20314;-63
2023/08/15 10:58:59;;;;;;;6.40;5.90;;;;;;;29.62;nan;96934.44;5020370;28;20224;-63
2023/08/15 11:01:28;;;;;;;6.67;6.17;;;;;;;29.54;nan;96924.28;5014381;28;20199;-62
2023/08/15 11:03:57;;;;;;;7.37;6.37;;;;;;;29.86;nan;96925.84;5018288;28;20703;-64
2023/08/15 11:06:25;;;;;;;5.60;5.30;;;;;;;29.94;nan;96921.53;4903721;28;20209;-64
2023/08/15 11:08:56;;;;;;;5.93;5.53;;;;;;;30.09;nan;96922.22;5018652;28;20204;-64
2023/08/15 11:11:25;;;;;;;6.33;5.83;;;;;;;30.22;nan;96926.78;4971701;28;20236;-63
2023/08/15 11:13:55;;;;;;;5.90;5.50;;;;;;;30.25;nan;96920.66;5019775;28;20320;-64
2023/08/15 11:16:25;;;;;;;6.27;5.77;;;;;;;30.30;nan;96917.78;5012166;28;20208;-64
2023/08/15 11:18:53;;;;;;;6.80;6.07;;;;;;;30.41;nan;96917.44;5017856;28;20209;-64
2023/08/15 11:21:20;;;;;;;6.37;5.87;;;;;;;30.44;nan;96895.75;5014318;28;20204;-64
2023/08/15 11:23:53;;;;;;;6.00;5.50;;;;;;;30.53;nan;96912.16;5015756;28;20216;-65
2023/08/15 11:26:25;;;;;;;5.57;5.27;;;;;;;30.48;nan;96912.31;5011989;28;20230;-64
2023/08/15 11:28:53;;;;;;;6.13;5.60;;;;;;;30.55;nan;96909.09;5019321;28;20205;-64
2023/08/15 11:31:21;;;;;;;6.53;6.03;;;;;;;30.81;nan;96924.72;5011765;28;20220;-64
2023/08/15 11:33:52;;;;;;;5.80;5.30;;;;;;;30.88;nan;96914.09;5017434;28;20215;-65
2023/08/15 11:36:22;;;;;;;6.03;5.70;;;;;;;31.01;nan;96923.25;5014669;28;20204;-64
2023/08/15 11:38:49;;;;;;;6.07;5.47;;;;;;;30.80;nan;96920.38;5018654;28;20468;-65
2023/08/15 11:41:17;;;;;;;6.30;4.90;;;;;;;30.80;nan;96920.38;4914044;28;20209;-64
2023/08/15 11:43:45;;;;;;;5.23;4.83;;;;;;;30.70;nan;96916.84;5018485;28;20929;-64
2023/08/15 11:46:13;;;;;;;6.60;6.10;;;;;;;30.84;nan;96913.94;5012568;28;20588;-65
2023/08/15 11:48:44;;;;;;;7.77;7.07;;;;;;;30.75;nan;96913.97;5018577;28;20200;-64
2023/08/15 11:51:19;;;;;;;6.80;5.20;;;;;;;30.68;nan;96910.88;5013397;28;20262;-63
2023/08/15 11:53:49;;;;;;;6.00;5.50;;;;;;;30.96;nan;96920.69;5017186;28;20218;-63
2023/08/15 11:56:17;;;;;;;6.23;5.83;;;;;;;31.02;nan;96919.38;5013688;28;20230;-63